Terminal Aerodrome Forecast
Issued by NWS

Home | Current Version | Previous Version | Text Only | Print | Product List | Glossary On
Versions: 1 2 3 4 5 6 7 8 9 10 11 12 13 14 15 16 17 18 19
084
FTUS42 KTBW 200959 AAA
TAFPGD
TAF AMD
KPGD 200959Z 2010/2106 18004KT 2SM BR BKN005
      TEMPO 2010/2013 1/4SM FG BKN002
     FM201300 16004KT P6SM SCT025 BKN250
     FM201800 23009KT P6SM SCT035 BKN250=

USA.gov is the U.S. government's official web portal to all federal, state and local government web resources and services.